sensor_id;sensor_type;location;lat;lon;timestamp;temperature;humidity
30037;DHT22;36325;51.512;-0.382;2023-05-29T00:01:06;11.80;99.90
30037;DHT22;36325;51.512;-0.382;2023-05-29T00:03:35;11.80;99.90
30037;DHT22;36325;51.512;-0.382;2023-05-29T00:06:03;11.80;99.90
30037;DHT22;36325;51.512;-0.382;2023-05-29T00:08:30;11.80;99.90
30037;DHT22;36325;51.512;-0.382;2023-05-29T00:10:58;11.40;99.90
30037;DHT22;36325;51.512;-0.382;2023-05-29T00:15:54;11.70;99.90
30037;DHT22;36325;51.512;-0.382;2023-05-29T00:18:22;11.60;99.90
30037;DHT22;36325;51.512;-0.382;2023-05-29T00:20:50;11.60;99.90
30037;DHT22;36325;51.512;-0.382;2023-05-29T00:23:17;11.60;99.90
30037;DHT22;36325;51.512;-0.382;2023-05-29T00:25:44;11.50;99.90
30037;DHT22;36325;51.512;-0.382;2023-05-29T00:28:12;11.50;99.90
30037;DHT22;36325;51.512;-0.382;2023-05-29T00:30:40;11.50;99.90
30037;DHT22;36325;51.512;-0.382;2023-05-29T00:33:07;11.40;99.90
30037;DHT22;36325;51.512;-0.382;2023-05-29T00:35:35;11.40;99.90
30037;DHT22;36325;51.512;-0.382;2023-05-29T00:38:03;11.40;99.90
30037;DHT22;36325;51.512;-0.382;2023-05-29T00:40:31;11.30;99.90
30037;DHT22;36325;51.512;-0.382;2023-05-29T00:42:59;11.30;99.90
30037;DHT22;36325;51.512;-0.382;2023-05-29T00:45:26;11.30;99.90
30037;DHT22;36325;51.512;-0.382;2023-05-29T00:47:53;11.20;99.90
30037;DHT22;36325;51.512;-0.382;2023-05-29T00:50:22;11.20;99.90
30037;DHT22;36325;51.512;-0.382;2023-05-29T00:52:50;11.20;99.90
30037;DHT22;36325;51.512;-0.382;2023-05-29T00:57:46;11.10;99.90
30037;DHT22;36325;51.512;-0.382;2023-05-29T01:00:14;11.10;99.90
30037;DHT22;36325;51.512;-0.382;2023-05-29T01:02:44;11.10;99.90
30037;DHT22;36325;51.512;-0.382;2023-05-29T01:05:12;11.00;99.90
30037;DHT22;36325;51.512;-0.382;2023-05-29T01:07:42;11.00;99.90
30037;DHT22;36325;51.512;-0.382;2023-05-29T01:10:10;11.00;99.90
30037;DHT22;36325;51.512;-0.382;2023-05-29T01:12:47;11.00;99.90
30037;DHT22;36325;51.512;-0.382;2023-05-29T01:15:28;10.90;99.90
30037;DHT22;36325;51.512;-0.382;2023-05-29T01:18:16;10.90;99.90
30037;DHT22;36325;51.512;-0.382;2023-05-29T01:20:50;10.90;99.90
30037;DHT22;36325;51.512;-0.382;2023-05-29T01:23:26;10.90;99.90
30037;DHT22;36325;51.512;-0.382;2023-05-29T01:28:48;10.80;99.90
30037;DHT22;36325;51.512;-0.382;2023-05-29T01:31:25;10.70;99.90
30037;DHT22;36325;51.512;-0.382;2023-05-29T01:33:57;10.70;99.90
30037;DHT22;36325;51.512;-0.382;2023-05-29T01:36:25;10.70;99.90
30037;DHT22;36325;51.512;-0.382;2023-05-29T01:38:56;10.70;99.90
30037;DHT22;36325;51.512;-0.382;2023-05-29T01:41:25;10.70;99.90
30037;DHT22;36325;51.512;-0.382;2023-05-29T01:43:54;10.70;99.90
30037;DHT22;36325;51.512;-0.382;2023-05-29T01:46:23;10.70;99.90
30037;DHT22;36325;51.512;-0.382;2023-05-29T01:48:52;13.30;99.90
30037;DHT22;36325;51.512;-0.382;2023-05-29T01:51:22;10.60;99.90
30037;DHT22;36325;51.512;-0.382;2023-05-29T01:56:19;10.50;99.90
30037;DHT22;36325;51.512;-0.382;2023-05-29T01:58:48;10.50;99.90
30037;DHT22;36325;51.512;-0.382;2023-05-29T02:01:16;10.50;99.90
30037;DHT22;36325;51.512;-0.382;2023-05-29T02:03:43;10.50;99.90
30037;DHT22;36325;51.512;-0.382;2023-05-29T02:08:38;10.50;99.90
30037;DHT22;36325;51.512;-0.382;2023-05-29T02:11:05;10.40;99.90
30037;DHT22;36325;51.512;-0.382;2023-05-29T02:13:33;10.40;99.90
30037;DHT22;36325;51.512;-0.382;2023-05-29T02:16:02;10.40;99.90
30037;DHT22;36325;51.512;-0.382;2023-05-29T02:18:30;10.30;99.90
30037;DHT22;36325;51.512;-0.382;2023-05-29T02:20:58;10.30;99.90
30037;DHT22;36325;51.512;-0.382;2023-05-29T02:23:27;10.30;99.90
30037;DHT22;36325;51.512;-0.382;2023-05-29T02:25:54;10.30;99.90
30037;DHT22;36325;51.512;-0.382;2023-05-29T02:28:21;10.30;99.90
30037;DHT22;36325;51.512;-0.382;2023-05-29T02:30:49;10.20;99.90
30037;DHT22;36325;51.512;-0.382;2023-05-29T02:33:17;10.20;99.90
30037;DHT22;36325;51.512;-0.382;2023-05-29T02:35:44;10.20;99.90
30037;DHT22;36325;51.512;-0.382;2023-05-29T02:38:11;10.20;99.90
30037;DHT22;36325;51.512;-0.382;2023-05-29T02:40:40;10.10;99.90
30037;DHT22;36325;51.512;-0.382;2023-05-29T02:43:08;10.10;99.90
30037;DHT22;36325;51.512;-0.382;2023-05-29T02:45:36;10.10;99.90
30037;DHT22;36325;51.512;-0.382;2023-05-29T02:48:03;10.00;99.90
30037;DHT22;36325;51.512;-0.382;2023-05-29T02:50:30;10.00;99.90
30037;DHT22;36325;51.512;-0.382;2023-05-29T02:52:58;10.00;99.90
30037;DHT22;36325;51.512;-0.382;2023-05-29T03:00:22;9.90;99.90
30037;DHT22;36325;51.512;-0.382;2023-05-29T03:02:49;10.00;99.90
30037;DHT22;36325;51.512;-0.382;2023-05-29T03:05:17;9.90;99.90
30037;DHT22;36325;51.512;-0.382;2023-05-29T03:07:44;9.90;99.90
30037;DHT22;36325;51.512;-0.382;2023-05-29T03:10:14;9.90;99.90
30037;DHT22;36325;51.512;-0.382;2023-05-29T03:12:56;9.80;99.90
30037;DHT22;36325;51.512;-0.382;2023-05-29T03:15:38;9.80;99.90
30037;DHT22;36325;51.512;-0.382;2023-05-29T03:18:10;9.00;99.90
30037;DHT22;36325;51.512;-0.382;2023-05-29T03:20:37;9.70;99.90
30037;DHT22;36325;51.512;-0.382;2023-05-29T03:23:05;9.70;99.90
30037;DHT22;36325;51.512;-0.382;2023-05-29T03:25:34;9.70;99.90
30037;DHT22;36325;51.512;-0.382;2023-05-29T03:30:30;9.60;99.90
30037;DHT22;36325;51.512;-0.382;2023-05-29T03:32:58;9.60;99.90
30037;DHT22;36325;51.512;-0.382;2023-05-29T03:36:03;9.60;99.90
30037;DHT22;36325;51.512;-0.382;2023-05-29T03:38:31;9.50;99.90
30037;DHT22;36325;51.512;-0.382;2023-05-29T03:40:59;9.50;99.90
30037;DHT22;36325;51.512;-0.382;2023-05-29T03:43:27;9.50;99.90
30037;DHT22;36325;51.512;-0.382;2023-05-29T03:45:55;9.40;99.90
30037;DHT22;36325;51.512;-0.382;2023-05-29T03:48:24;9.40;99.90
30037;DHT22;36325;51.512;-0.382;2023-05-29T03:50:51;9.40;99.90
30037;DHT22;36325;51.512;-0.382;2023-05-29T03:58:21;9.30;99.90
30037;DHT22;36325;51.512;-0.382;2023-05-29T04:00:48;9.30;99.90
30037;DHT22;36325;51.512;-0.382;2023-05-29T04:05:46;9.30;99.90
30037;DHT22;36325;51.512;-0.382;2023-05-29T04:10:42;9.30;99.90
30037;DHT22;36325;51.512;-0.382;2023-05-29T04:13:10;9.30;99.90
30037;DHT22;36325;51.512;-0.382;2023-05-29T04:15:39;9.30;99.90
30037;DHT22;36325;51.512;-0.382;2023-05-29T04:20:36;9.20;99.90
30037;DHT22;36325;51.512;-0.382;2023-05-29T04:25:32;9.30;99.90
30037;DHT22;36325;51.512;-0.382;2023-05-29T04:27:59;9.30;99.90
30037;DHT22;36325;51.512;-0.382;2023-05-29T04:30:28;9.30;99.90
30037;DHT22;36325;51.512;-0.382;2023-05-29T04:32:57;9.30;99.90
30037;DHT22;36325;51.512;-0.382;2023-05-29T04:35:25;9.40;99.90
30037;DHT22;36325;51.512;-0.382;2023-05-29T04:37:58;9.40;99.90
30037;DHT22;36325;51.512;-0.382;2023-05-29T04:40:30;9.40;99.90
30037;DHT22;36325;51.512;-0.382;2023-05-29T04:42:58;9.40;99.90
30037;DHT22;36325;51.512;-0.382;2023-05-29T04:45:32;9.50;99.90
30037;DHT22;36325;51.512;-0.382;2023-05-29T04:48:01;9.50;99.90
30037;DHT22;36325;51.512;-0.382;2023-05-29T04:50:30;9.50;99.90
30037;DHT22;36325;51.512;-0.382;2023-05-29T04:52:59;9.70;99.90
30037;DHT22;36325;51.512;-0.382;2023-05-29T04:55:28;9.60;99.90
30037;DHT22;36325;51.512;-0.382;2023-05-29T04:57:56;9.70;99.90
30037;DHT22;36325;51.512;-0.382;2023-05-29T05:00:24;9.70;99.90
30037;DHT22;36325;51.512;-0.382;2023-05-29T05:02:52;9.80;99.90
30037;DHT22;36325;51.512;-0.382;2023-05-29T05:05:19;9.90;99.90
30037;DHT22;36325;51.512;-0.382;2023-05-29T05:07:48;10.00;99.90
30037;DHT22;36325;51.512;-0.382;2023-05-29T05:10:15;10.20;99.90
30037;DHT22;36325;51.512;-0.382;2023-05-29T05:15:12;10.30;99.90
30037;DHT22;36325;51.512;-0.382;2023-05-29T05:22:36;10.60;99.90
30037;DHT22;36325;51.512;-0.382;2023-05-29T05:25:05;10.60;99.90
30037;DHT22;36325;51.512;-0.382;2023-05-29T05:27:33;10.60;99.90
30037;DHT22;36325;51.512;-0.382;2023-05-29T05:30:03;10.70;99.90
30037;DHT22;36325;51.512;-0.382;2023-05-29T05:32:30;10.60;99.90
30037;DHT22;36325;51.512;-0.382;2023-05-29T05:35:04;10.70;99.90
30037;DHT22;36325;51.512;-0.382;2023-05-29T05:37:31;10.70;99.90
30037;DHT22;36325;51.512;-0.382;2023-05-29T05:40:00;10.80;99.90
30037;DHT22;36325;51.512;-0.382;2023-05-29T05:42:29;10.80;99.90
30037;DHT22;36325;51.512;-0.382;2023-05-29T05:45:03;10.90;99.90
30037;DHT22;36325;51.512;-0.382;2023-05-29T05:47:33;10.90;99.90
30037;DHT22;36325;51.512;-0.382;2023-05-29T05:50:00;11.00;99.90
30037;DHT22;36325;51.512;-0.382;2023-05-29T05:55:00;11.20;99.90
30037;DHT22;36325;51.512;-0.382;2023-05-29T05:57:29;11.20;99.90
30037;DHT22;36325;51.512;-0.382;2023-05-29T05:59:56;11.30;99.90
30037;DHT22;36325;51.512;-0.382;2023-05-29T06:02:25;11.40;99.90
30037;DHT22;36325;51.512;-0.382;2023-05-29T06:04:53;11.40;99.90
30037;DHT22;36325;51.512;-0.382;2023-05-29T06:09:50;11.60;99.90
30037;DHT22;36325;51.512;-0.382;2023-05-29T06:12:17;11.90;99.90
30037;DHT22;36325;51.512;-0.382;2023-05-29T06:14:55;11.60;99.90
30037;DHT22;36325;51.512;-0.382;2023-05-29T06:17:23;11.70;99.90
30037;DHT22;36325;51.512;-0.382;2023-05-29T06:19:50;11.70;99.90
30037;DHT22;36325;51.512;-0.382;2023-05-29T06:22:18;11.80;99.90
30037;DHT22;36325;51.512;-0.382;2023-05-29T06:24:46;11.80;99.90
30037;DHT22;36325;51.512;-0.382;2023-05-29T06:27:13;11.90;99.90
30037;DHT22;36325;51.512;-0.382;2023-05-29T06:29:40;12.00;99.90
30037;DHT22;36325;51.512;-0.382;2023-05-29T06:32:08;12.00;99.90
30037;DHT22;36325;51.512;-0.382;2023-05-29T06:34:35;12.10;99.90
30037;DHT22;36325;51.512;-0.382;2023-05-29T06:37:03;12.30;99.90
30037;DHT22;36325;51.512;-0.382;2023-05-29T06:42:00;12.60;99.90
30037;DHT22;36325;51.512;-0.382;2023-05-29T06:44:30;12.60;99.90
30037;DHT22;36325;51.512;-0.382;2023-05-29T06:46:58;12.70;99.90
30037;DHT22;36325;51.512;-0.382;2023-05-29T06:49:25;12.70;99.90
30037;DHT22;36325;51.512;-0.382;2023-05-29T06:51:52;12.80;99.90
30037;DHT22;36325;51.512;-0.382;2023-05-29T06:54:24;13.00;99.90
30037;DHT22;36325;51.512;-0.382;2023-05-29T06:56:52;13.20;99.90
30037;DHT22;36325;51.512;-0.382;2023-05-29T06:59:38;13.20;99.90
30037;DHT22;36325;51.512;-0.382;2023-05-29T07:04:35;13.30;99.90
30037;DHT22;36325;51.512;-0.382;2023-05-29T07:07:04;13.30;99.90
30037;DHT22;36325;51.512;-0.382;2023-05-29T07:09:32;13.30;99.90
30037;DHT22;36325;51.512;-0.382;2023-05-29T07:11:59;13.30;99.90
30037;DHT22;36325;51.512;-0.382;2023-05-29T07:14:28;13.40;99.90
30037;DHT22;36325;51.512;-0.382;2023-05-29T07:16:56;13.50;99.90
30037;DHT22;36325;51.512;-0.382;2023-05-29T07:19:27;13.60;99.90
30037;DHT22;36325;51.512;-0.382;2023-05-29T07:21:56;13.70;99.90
30037;DHT22;36325;51.512;-0.382;2023-05-29T07:24:24;14.00;99.90
30037;DHT22;36325;51.512;-0.382;2023-05-29T07:26:52;14.10;99.90
30037;DHT22;36325;51.512;-0.382;2023-05-29T07:29:20;14.00;99.90
30037;DHT22;36325;51.512;-0.382;2023-05-29T07:34:20;14.40;99.90
30037;DHT22;36325;51.512;-0.382;2023-05-29T07:37:01;14.40;99.90
30037;DHT22;36325;51.512;-0.382;2023-05-29T07:39:32;14.40;99.90
30037;DHT22;36325;51.512;-0.382;2023-05-29T07:42:03;14.60;99.90
30037;DHT22;36325;51.512;-0.382;2023-05-29T07:44:35;14.60;99.90
30037;DHT22;36325;51.512;-0.382;2023-05-29T07:47:02;14.80;99.90
30037;DHT22;36325;51.512;-0.382;2023-05-29T07:49:35;14.80;99.90
30037;DHT22;36325;51.512;-0.382;2023-05-29T07:54:32;14.50;99.90
30037;DHT22;36325;51.512;-0.382;2023-05-29T07:57:03;14.50;99.90
30037;DHT22;36325;51.512;-0.382;2023-05-29T07:59:31;14.50;99.90
30037;DHT22;36325;51.512;-0.382;2023-05-29T08:01:59;14.50;99.90
30037;DHT22;36325;51.512;-0.382;2023-05-29T08:04:49;14.60;99.90
30037;DHT22;36325;51.512;-0.382;2023-05-29T08:07:17;14.70;99.90
30037;DHT22;36325;51.512;-0.382;2023-05-29T08:09:45;14.80;99.90
30037;DHT22;36325;51.512;-0.382;2023-05-29T08:14:42;14.80;99.90
30037;DHT22;36325;51.512;-0.382;2023-05-29T08:17:10;14.80;99.90
30037;DHT22;36325;51.512;-0.382;2023-05-29T08:24:36;15.10;99.90
30037;DHT22;36325;51.512;-0.382;2023-05-29T08:27:04;15.20;99.90
30037;DHT22;36325;51.512;-0.382;2023-05-29T08:31:59;15.40;99.90
30037;DHT22;36325;51.512;-0.382;2023-05-29T08:34:26;15.40;99.90
30037;DHT22;36325;51.512;-0.382;2023-05-29T08:36:54;15.70;99.90
30037;DHT22;36325;51.512;-0.382;2023-05-29T08:39:22;15.80;99.90
30037;DHT22;36325;51.512;-0.382;2023-05-29T08:44:21;16.40;99.90
30037;DHT22;36325;51.512;-0.382;2023-05-29T08:46:54;16.60;99.90
30037;DHT22;36325;51.512;-0.382;2023-05-29T08:52:23;16.90;99.90
30037;DHT22;36325;51.512;-0.382;2023-05-29T08:54:54;17.50;99.90
30037;DHT22;36325;51.512;-0.382;2023-05-29T08:57:21;17.50;99.90
30037;DHT22;36325;51.512;-0.382;2023-05-29T08:59:51;17.70;99.90
30037;DHT22;36325;51.512;-0.382;2023-05-29T09:02:19;18.20;99.90
30037;DHT22;36325;51.512;-0.382;2023-05-29T09:04:47;18.20;99.90
30037;DHT22;36325;51.512;-0.382;2023-05-29T09:07:16;18.50;99.90
30037;DHT22;36325;51.512;-0.382;2023-05-29T09:09:48;18.80;99.90
30037;DHT22;36325;51.512;-0.382;2023-05-29T09:12:16;19.20;99.90
30037;DHT22;36325;51.512;-0.382;2023-05-29T09:14:45;19.40;99.90
30037;DHT22;36325;51.512;-0.382;2023-05-29T09:17:13;19.40;99.90
30037;DHT22;36325;51.512;-0.382;2023-05-29T09:19:42;19.50;99.90
30037;DHT22;36325;51.512;-0.382;2023-05-29T09:22:12;19.60;99.90
30037;DHT22;36325;51.512;-0.382;2023-05-29T09:24:46;19.50;99.90
30037;DHT22;36325;51.512;-0.382;2023-05-29T09:27:14;19.40;99.90
30037;DHT22;36325;51.512;-0.382;2023-05-29T09:29:43;19.40;99.90
30037;DHT22;36325;51.512;-0.382;2023-05-29T09:32:13;19.50;99.90
30037;DHT22;36325;51.512;-0.382;2023-05-29T09:34:42;19.80;99.90
30037;DHT22;36325;51.512;-0.382;2023-05-29T09:37:10;19.80;99.90
30037;DHT22;36325;51.512;-0.382;2023-05-29T09:39:48;19.60;99.90
30037;DHT22;36325;51.512;-0.382;2023-05-29T09:42:16;19.60;99.90
30037;DHT22;36325;51.512;-0.382;2023-05-29T09:44:49;19.70;99.90
30037;DHT22;36325;51.512;-0.382;2023-05-29T09:47:20;19.70;99.90
30037;DHT22;36325;51.512;-0.382;2023-05-29T09:49:48;20.00;99.90
30037;DHT22;36325;51.512;-0.382;2023-05-29T09:52:21;20.10;99.90
30037;DHT22;36325;51.512;-0.382;2023-05-29T09:54:50;20.30;99.90
30037;DHT22;36325;51.512;-0.382;2023-05-29T09:57:18;20.30;99.90
30037;DHT22;36325;51.512;-0.382;2023-05-29T09:59:46;20.50;99.90
30037;DHT22;36325;51.512;-0.382;2023-05-29T10:02:19;20.50;99.90
30037;DHT22;36325;51.512;-0.382;2023-05-29T10:04:48;20.60;99.90
30037;DHT22;36325;51.512;-0.382;2023-05-29T10:07:27;20.40;99.90
30037;DHT22;36325;51.512;-0.382;2023-05-29T10:10:04;19.80;99.90
30037;DHT22;36325;51.512;-0.382;2023-05-29T10:12:32;19.80;99.90
30037;DHT22;36325;51.512;-0.382;2023-05-29T10:15:02;19.90;99.90
30037;DHT22;36325;51.512;-0.382;2023-05-29T10:17:35;20.40;99.90
30037;DHT22;36325;51.512;-0.382;2023-05-29T10:20:04;20.40;99.90
30037;DHT22;36325;51.512;-0.382;2023-05-29T10:22:33;20.80;99.90
30037;DHT22;36325;51.512;-0.382;2023-05-29T10:25:03;20.80;99.90
30037;DHT22;36325;51.512;-0.382;2023-05-29T10:27:31;21.00;99.90
30037;DHT22;36325;51.512;-0.382;2023-05-29T10:30:04;21.20;99.90
30037;DHT22;36325;51.512;-0.382;2023-05-29T10:38:17;22.10;99.90
30037;DHT22;36325;51.512;-0.382;2023-05-29T10:43:34;22.40;99.90
30037;DHT22;36325;51.512;-0.382;2023-05-29T10:46:02;22.60;99.90
30037;DHT22;36325;51.512;-0.382;2023-05-29T10:48:37;22.60;99.90
30037;DHT22;36325;51.512;-0.382;2023-05-29T10:51:08;22.50;99.90
30037;DHT22;36325;51.512;-0.382;2023-05-29T10:56:15;23.00;99.90
30037;DHT22;36325;51.512;-0.382;2023-05-29T10:58:52;23.20;99.90
30037;DHT22;36325;51.512;-0.382;2023-05-29T11:01:24;23.10;99.90
30037;DHT22;36325;51.512;-0.382;2023-05-29T11:06:44;24.00;99.50
30037;DHT22;36325;51.512;-0.382;2023-05-29T11:12:23;23.80;98.80
30037;DHT22;36325;51.512;-0.382;2023-05-29T11:15:04;23.80;98.40
30037;DHT22;36325;51.512;-0.382;2023-05-29T11:17:43;23.70;97.90
30037;DHT22;36325;51.512;-0.382;2023-05-29T11:20:32;23.70;98.10
30037;DHT22;36325;51.512;-0.382;2023-05-29T11:23:06;23.90;98.20
30037;DHT22;36325;51.512;-0.382;2023-05-29T11:25:39;23.60;98.50
30037;DHT22;36325;51.512;-0.382;2023-05-29T11:28:08;23.30;98.30
30037;DHT22;36325;51.512;-0.382;2023-05-29T11:30:48;23.30;98.60
30037;DHT22;36325;51.512;-0.382;2023-05-29T11:33:25;23.80;98.20
30037;DHT22;36325;51.512;-0.382;2023-05-29T11:35:58;24.10;97.70
30037;DHT22;36325;51.512;-0.382;2023-05-29T11:38:27;24.50;97.30
30037;DHT22;36325;51.512;-0.382;2023-05-29T11:40:55;24.60;96.90
30037;DHT22;36325;51.512;-0.382;2023-05-29T11:43:24;25.40;95.70
30037;DHT22;36325;51.512;-0.382;2023-05-29T11:45:52;25.50;96.10
30037;DHT22;36325;51.512;-0.382;2023-05-29T11:50:50;25.90;94.10
30037;DHT22;36325;51.512;-0.382;2023-05-29T11:53:17;26.00;93.70
30037;DHT22;36325;51.512;-0.382;2023-05-29T11:58:12;26.40;93.50
30037;DHT22;36325;51.512;-0.382;2023-05-29T12:00:40;26.30;93.40
30037;DHT22;36325;51.512;-0.382;2023-05-29T12:03:07;26.50;93.40
30037;DHT22;36325;51.512;-0.382;2023-05-29T12:05:48;27.00;92.90
30037;DHT22;36325;51.512;-0.382;2023-05-29T12:08:17;26.90;91.80
30037;DHT22;36325;51.512;-0.382;2023-05-29T12:10:49;26.90;92.10
30037;DHT22;36325;51.512;-0.382;2023-05-29T12:13:18;26.70;91.80
30037;DHT22;36325;51.512;-0.382;2023-05-29T12:15:48;26.80;91.40
30037;DHT22;36325;51.512;-0.382;2023-05-29T12:18:16;27.20;91.30
30037;DHT22;36325;51.512;-0.382;2023-05-29T12:20:44;27.40;90.50
30037;DHT22;36325;51.512;-0.382;2023-05-29T12:23:11;27.20;88.60
30037;DHT22;36325;51.512;-0.382;2023-05-29T12:25:39;27.20;89.20
30037;DHT22;36325;51.512;-0.382;2023-05-29T12:28:07;27.20;90.00
30037;DHT22;36325;51.512;-0.382;2023-05-29T12:30:38;27.50;89.70
30037;DHT22;36325;51.512;-0.382;2023-05-29T12:33:07;27.90;88.70
30037;DHT22;36325;51.512;-0.382;2023-05-29T12:35:35;27.80;88.00
30037;DHT22;36325;51.512;-0.382;2023-05-29T12:38:07;27.90;86.80
30037;DHT22;36325;51.512;-0.382;2023-05-29T12:40:37;27.70;86.80
30037;DHT22;36325;51.512;-0.382;2023-05-29T12:43:08;27.50;88.00
30037;DHT22;36325;51.512;-0.382;2023-05-29T12:45:39;28.00;87.60
30037;DHT22;36325;51.512;-0.382;2023-05-29T12:48:07;28.70;87.30
30037;DHT22;36325;51.512;-0.382;2023-05-29T12:50:37;29.20;85.50
30037;DHT22;36325;51.512;-0.382;2023-05-29T12:53:07;28.70;84.10
30037;DHT22;36325;51.512;-0.382;2023-05-29T12:55:37;28.00;83.80
30037;DHT22;36325;51.512;-0.382;2023-05-29T12:58:07;27.40;84.50
30037;DHT22;36325;51.512;-0.382;2023-05-29T13:00:39;27.50;85.50
30037;DHT22;36325;51.512;-0.382;2023-05-29T13:03:07;27.70;85.30
30037;DHT22;36325;51.512;-0.382;2023-05-29T13:05:35;28.10;84.90
30037;DHT22;36325;51.512;-0.382;2023-05-29T13:08:03;28.10;84.20
30037;DHT22;36325;51.512;-0.382;2023-05-29T13:10:33;28.10;83.90
30037;DHT22;36325;51.512;-0.382;2023-05-29T13:13:01;28.20;84.90
30037;DHT22;36325;51.512;-0.382;2023-05-29T13:15:29;28.20;84.10
30037;DHT22;36325;51.512;-0.382;2023-05-29T13:17:57;28.90;83.70
30037;DHT22;36325;51.512;-0.382;2023-05-29T13:20:27;28.80;82.20
30037;DHT22;36325;51.512;-0.382;2023-05-29T13:22:54;28.30;82.40
30037;DHT22;36325;51.512;-0.382;2023-05-29T13:25:21;28.10;83.10
30037;DHT22;36325;51.512;-0.382;2023-05-29T13:27:51;27.90;81.90
30037;DHT22;36325;51.512;-0.382;2023-05-29T13:30:19;27.90;83.30
30037;DHT22;36325;51.512;-0.382;2023-05-29T13:32:50;27.70;82.60
30037;DHT22;36325;51.512;-0.382;2023-05-29T13:35:19;27.90;82.20
30037;DHT22;36325;51.512;-0.382;2023-05-29T13:37:47;27.90;83.00
30037;DHT22;36325;51.512;-0.382;2023-05-29T13:42:44;28.40;82.10
30037;DHT22;36325;51.512;-0.382;2023-05-29T13:45:12;28.80;81.80
30037;DHT22;36325;51.512;-0.382;2023-05-29T13:47:39;28.30;81.50
30037;DHT22;36325;51.512;-0.382;2023-05-29T13:50:07;27.60;82.30
30037;DHT22;36325;51.512;-0.382;2023-05-29T13:52:35;27.90;83.00
30037;DHT22;36325;51.512;-0.382;2023-05-29T13:55:02;28.50;82.60
30037;DHT22;36325;51.512;-0.382;2023-05-29T13:57:35;29.00;81.70
30037;DHT22;36325;51.512;-0.382;2023-05-29T14:00:04;28.30;80.30
30037;DHT22;36325;51.512;-0.382;2023-05-29T14:02:32;28.20;81.00
30037;DHT22;36325;51.512;-0.382;2023-05-29T14:05:00;28.00;81.60
30037;DHT22;36325;51.512;-0.382;2023-05-29T14:07:30;28.30;81.90
30037;DHT22;36325;51.512;-0.382;2023-05-29T14:09:57;28.40;81.70
30037;DHT22;36325;51.512;-0.382;2023-05-29T14:12:24;28.40;82.10
30037;DHT22;36325;51.512;-0.382;2023-05-29T14:14:52;28.20;82.00
30037;DHT22;36325;51.512;-0.382;2023-05-29T14:17:19;27.60;82.80
30037;DHT22;36325;51.512;-0.382;2023-05-29T14:19:46;27.60;83.20
30037;DHT22;36325;51.512;-0.382;2023-05-29T14:22:15;27.70;83.50
30037;DHT22;36325;51.512;-0.382;2023-05-29T14:24:42;28.10;83.50
30037;DHT22;36325;51.512;-0.382;2023-05-29T14:27:09;28.60;82.50
30037;DHT22;36325;51.512;-0.382;2023-05-29T14:29:37;28.70;81.40
30037;DHT22;36325;51.512;-0.382;2023-05-29T14:32:04;28.80;80.60
30037;DHT22;36325;51.512;-0.382;2023-05-29T14:34:32;29.20;81.10
30037;DHT22;36325;51.512;-0.382;2023-05-29T14:36:59;28.80;79.80
30037;DHT22;36325;51.512;-0.382;2023-05-29T14:39:26;28.10;80.50
30037;DHT22;36325;51.512;-0.382;2023-05-29T14:41:53;28.10;81.20
30037;DHT22;36325;51.512;-0.382;2023-05-29T14:44:21;28.50;81.80
30037;DHT22;36325;51.512;-0.382;2023-05-29T14:46:48;28.50;81.10
30037;DHT22;36325;51.512;-0.382;2023-05-29T14:49:15;28.30;81.70
30037;DHT22;36325;51.512;-0.382;2023-05-29T14:51:43;28.00;82.80
30037;DHT22;36325;51.512;-0.382;2023-05-29T14:54:11;27.90;81.70
30037;DHT22;36325;51.512;-0.382;2023-05-29T14:56:39;28.00;82.00
30037;DHT22;36325;51.512;-0.382;2023-05-29T14:59:06;27.60;81.90
30037;DHT22;36325;51.512;-0.382;2023-05-29T15:01:33;27.40;83.10
30037;DHT22;36325;51.512;-0.382;2023-05-29T15:04:00;27.40;82.70
30037;DHT22;36325;51.512;-0.382;2023-05-29T15:06:30;27.80;83.30
30037;DHT22;36325;51.512;-0.382;2023-05-29T15:08:58;27.70;81.90
30037;DHT22;36325;51.512;-0.382;2023-05-29T15:11:31;27.40;81.90
30037;DHT22;36325;51.512;-0.382;2023-05-29T15:14:03;27.20;82.10
30037;DHT22;36325;51.512;-0.382;2023-05-29T15:16:31;27.10;82.60
30037;DHT22;36325;51.512;-0.382;2023-05-29T15:21:26;27.10;82.40
30037;DHT22;36325;51.512;-0.382;2023-05-29T15:23:53;27.10;83.50
30037;DHT22;36325;51.512;-0.382;2023-05-29T15:26:21;27.00;83.30
30037;DHT22;36325;51.512;-0.382;2023-05-29T15:28:48;27.10;83.40
30037;DHT22;36325;51.512;-0.382;2023-05-29T15:31:15;27.60;80.70
30037;DHT22;36325;51.512;-0.382;2023-05-29T15:33:43;27.40;79.80
30037;DHT22;36325;51.512;-0.382;2023-05-29T15:36:10;27.10;79.90
30037;DHT22;36325;51.512;-0.382;2023-05-29T15:38:38;27.10;80.70
30037;DHT22;36325;51.512;-0.382;2023-05-29T15:41:05;26.20;80.10
30037;DHT22;36325;51.512;-0.382;2023-05-29T15:43:32;26.20;78.10
30037;DHT22;36325;51.512;-0.382;2023-05-29T15:45:59;26.50;79.40
30037;DHT22;36325;51.512;-0.382;2023-05-29T15:48:27;26.40;80.10
30037;DHT22;36325;51.512;-0.382;2023-05-29T15:50:54;26.30;80.70
30037;DHT22;36325;51.512;-0.382;2023-05-29T15:53:21;26.30;81.80
30037;DHT22;36325;51.512;-0.382;2023-05-29T15:55:48;26.40;81.30
30037;DHT22;36325;51.512;-0.382;2023-05-29T15:58:16;26.70;81.20
30037;DHT22;36325;51.512;-0.382;2023-05-29T16:00:43;26.70;81.80
30037;DHT22;36325;51.512;-0.382;2023-05-29T16:03:10;26.80;81.30
30037;DHT22;36325;51.512;-0.382;2023-05-29T16:05:38;26.70;82.10
30037;DHT22;36325;51.512;-0.382;2023-05-29T16:08:05;26.50;82.80
30037;DHT22;36325;51.512;-0.382;2023-05-29T16:18:00;26.20;81.50
30037;DHT22;36325;51.512;-0.382;2023-05-29T16:20:27;26.20;81.80
30037;DHT22;36325;51.512;-0.382;2023-05-29T16:22:54;25.80;81.40
30037;DHT22;36325;51.512;-0.382;2023-05-29T16:25:23;25.60;82.00
30037;DHT22;36325;51.512;-0.382;2023-05-29T16:27:50;25.60;82.20
30037;DHT22;36325;51.512;-0.382;2023-05-29T16:30:17;25.60;80.50
30037;DHT22;36325;51.512;-0.382;2023-05-29T16:32:44;25.50;81.00
30037;DHT22;36325;51.512;-0.382;2023-05-29T16:35:12;25.40;81.10
30037;DHT22;36325;51.512;-0.382;2023-05-29T16:37:39;25.40;82.00
30037;DHT22;36325;51.512;-0.382;2023-05-29T16:40:07;25.90;81.30
30037;DHT22;36325;51.512;-0.382;2023-05-29T16:42:35;25.90;82.00
30037;DHT22;36325;51.512;-0.382;2023-05-29T16:45:02;25.80;80.20
30037;DHT22;36325;51.512;-0.382;2023-05-29T16:47:30;25.10;79.50
30037;DHT22;36325;51.512;-0.382;2023-05-29T16:49:57;24.50;79.80
30037;DHT22;36325;51.512;-0.382;2023-05-29T16:52:25;23.90;81.60
30037;DHT22;36325;51.512;-0.382;2023-05-29T16:54:52;21.30;80.90
30037;DHT22;36325;51.512;-0.382;2023-05-29T16:57:23;23.40;82.50
30037;DHT22;36325;51.512;-0.382;2023-05-29T16:59:51;23.20;84.10
30037;DHT22;36325;51.512;-0.382;2023-05-29T17:02:18;23.60;85.90
30037;DHT22;36325;51.512;-0.382;2023-05-29T17:07:14;22.60;86.20
30037;DHT22;36325;51.512;-0.382;2023-05-29T17:12:09;22.10;88.00
30037;DHT22;36325;51.512;-0.382;2023-05-29T17:17:06;22.00;88.10
30037;DHT22;36325;51.512;-0.382;2023-05-29T17:19:34;21.80;88.30
30037;DHT22;36325;51.512;-0.382;2023-05-29T17:22:01;21.50;88.00
30037;DHT22;36325;51.512;-0.382;2023-05-29T17:26:57;21.10;88.50